createdAt,value
2023-10-06T06:39:35.431Z,97611.16
2023-10-06T06:41:35.448Z,97607.88
2023-10-06T06:43:35.116Z,97607.78
2023-10-06T06:45:37.463Z,97605.81
2023-10-06T06:46:39.577Z,97606.66
2023-10-06T06:47:44.892Z,97607.22
2023-10-06T06:48:47.958Z,97605.63
2023-10-06T06:49:49.791Z,97606.09
2023-10-06T06:50:51.385Z,97606.34
2023-10-06T06:51:54.339Z,97609.31
2023-10-06T06:52:57.465Z,97612.72
2023-10-06T06:53:58.959Z,97611.97
2023-10-06T06:55:00.363Z,97611.31
2023-10-06T06:56:01.892Z,97613.34
2023-10-06T06:57:03.877Z,97607.47
2023-10-06T06:58:11.823Z,97612.28
2023-10-06T06:59:13.958Z,97605.31
2023-10-06T07:00:22.996Z,97608.75
2023-10-06T07:01:24.537Z,97608.41
2023-10-06T07:02:26.228Z,97611.25
2023-10-06T07:03:27.730Z,97607.63
2023-10-06T07:04:31.337Z,97601.94
2023-10-06T07:05:35.226Z,97603.59
2023-10-06T07:06:36.735Z,97609.97
2023-10-06T07:07:41.392Z,97607.47
2023-10-06T07:08:45.270Z,97598.47
2023-10-06T07:09:47.830Z,97591.69
2023-10-06T07:10:54.035Z,97587.47
2023-10-06T07:11:58.279Z,97597.03
2023-10-06T07:12:59.808Z,97600.13
2023-10-06T07:14:01.462Z,97593.84
2023-10-06T07:15:03.924Z,97591.47
2023-10-06T07:16:06.773Z,97601.31
2023-10-06T07:17:08.235Z,97604.81
2023-10-06T07:18:12.623Z,97598.03
2023-10-06T07:19:18.353Z,97604.50
2023-10-06T07:20:21.896Z,97603.84
2023-10-06T07:21:23.999Z,97601.94
2023-10-06T07:22:32.609Z,97606.09
2023-10-06T07:23:35.986Z,97605.19
2023-10-06T07:24:37.669Z,97607.56
2023-10-06T07:25:39.302Z,97615.50
2023-10-06T07:26:43.802Z,97615.47
2023-10-06T07:27:50.209Z,97612.38
2023-10-06T07:28:53.445Z,97610.81
2023-10-06T07:29:56.013Z,97614.16
2023-10-06T07:30:57.630Z,97609.06
2023-10-06T07:32:02.097Z,97611.88
2023-10-06T07:33:09.956Z,97610.38
2023-10-06T07:34:12.916Z,97612.28
2023-10-06T07:35:19.518Z,97615.69
2023-10-06T07:36:21.673Z,97615.03
2023-10-06T07:37:23.076Z,97613.38
2023-10-06T07:38:25.337Z,97618.88
2023-10-06T07:39:27.445Z,97618.44
2023-10-06T07:40:29.340Z,97616.09
2023-10-06T07:41:31.533Z,97609.72
2023-10-06T07:42:33.260Z,97621.63
2023-10-06T07:43:34.815Z,97612.03
2023-10-06T07:44:36.963Z,97609.56
2023-10-06T07:45:38.502Z,97615.06
2023-10-06T07:46:39.884Z,97616.44
2023-10-06T07:47:43.293Z,97617.31
2023-10-06T07:48:51.488Z,97609.66
2023-10-06T07:49:52.921Z,97612.00
2023-10-06T07:50:55.030Z,97619.75
2023-10-06T07:51:57.105Z,97609.72
2023-10-06T07:52:58.577Z,97613.88
2023-10-06T07:54:00.319Z,97616.97
2023-10-06T07:55:01.782Z,97614.22
2023-10-06T07:56:10.317Z,97615.53
2023-10-06T07:57:13.977Z,97614.66
2023-10-06T07:58:16.705Z,97611.25
2023-10-06T07:59:18.216Z,97610.13
2023-10-06T08:00:31.794Z,97611.69
2023-10-06T08:01:36.112Z,97609.81
2023-10-06T08:02:40.784Z,97608.91
2023-10-06T08:03:42.855Z,97606.44
2023-10-06T08:04:44.576Z,97609.41
2023-10-06T08:05:45.952Z,97607.16
2023-10-06T08:06:47.426Z,97606.16
2023-10-06T08:07:48.909Z,97607.59
2023-10-06T08:08:50.606Z,97607.69
2023-10-06T08:09:52.890Z,97601.31
2023-10-06T08:10:55.589Z,97601.97
2023-10-06T08:11:57.049Z,97603.00
2023-10-06T08:13:01.806Z,97603.06
2023-10-06T08:14:04.232Z,97607.16
2023-10-06T08:15:10.521Z,97607.41
2023-10-06T08:16:13.787Z,97599.19
2023-10-06T08:17:15.332Z,97597.63
2023-10-06T08:18:16.767Z,97598.25
2023-10-06T08:19:18.198Z,97604.91
2023-10-06T08:20:21.205Z,97599.69
2023-10-06T08:21:23.951Z,97594.75
2023-10-06T08:22:27.029Z,97602.50
2023-10-06T08:23:36.453Z,97597.94
2023-10-06T08:24:37.982Z,97601.66
2023-10-06T08:25:49.631Z,97592.31
2023-10-06T08:27:01.571Z,97603.03
2023-10-06T08:28:06.137Z,97604.81
2023-10-06T08:29:07.698Z,97601.00
2023-10-06T08:30:17.075Z,97600.25
2023-10-06T08:31:18.617Z,97610.13
2023-10-06T08:32:20.679Z,97605.63
2023-10-06T08:33:27.047Z,97611.28
2023-10-06T08:34:30.596Z,97609.94
2023-10-06T08:35:32.148Z,97602.66
2023-10-06T08:36:34.123Z,97603.44
2023-10-06T08:37:35.609Z,97606.91
2023-10-06T08:38:37.306Z,97596.75
2023-10-06T08:39:43.483Z,97600.03
2023-10-06T08:40:46.291Z,97600.13
2023-10-06T08:41:50.927Z,97603.53
2023-10-06T08:42:59.838Z,97605.78
2023-10-06T08:44:05.626Z,97602.13
2023-10-06T08:45:09.378Z,97607.84
2023-10-06T08:46:14.420Z,97602.44
2023-10-06T08:47:29.203Z,97606.59
2023-10-06T08:48:33.857Z,97602.13
2023-10-06T08:49:35.517Z,97600.56
2023-10-06T08:50:38.364Z,97598.63
2023-10-06T08:51:42.087Z,97612.44
2023-10-06T08:52:47.000Z,97611.28
2023-10-06T08:53:50.632Z,97613.50
2023-10-06T08:54:52.117Z,97612.91
2023-10-06T08:55:53.598Z,97615.50
2023-10-06T08:56:55.152Z,97612.75
2023-10-06T08:58:00.921Z,97615.94
2023-10-06T08:59:06.601Z,97616.88
2023-10-06T09:00:08.768Z,97613.97
2023-10-06T09:01:13.494Z,97614.28
2023-10-06T09:02:18.079Z,97601.41
2023-10-06T09:03:21.602Z,97604.91
2023-10-06T09:04:23.237Z,97604.31
2023-10-06T09:05:24.915Z,97602.59
2023-10-06T09:06:26.997Z,97608.47
2023-10-06T09:07:28.373Z,97608.84
2023-10-06T09:08:40.345Z,97607.16
2023-10-06T09:09:43.949Z,97602.09
2023-10-06T09:10:57.409Z,97609.47
2023-10-06T09:11:59.856Z,97606.41
2023-10-06T09:13:03.940Z,97604.69
2023-10-06T09:14:09.695Z,97603.75
2023-10-06T09:15:17.640Z,97602.31
2023-10-06T09:16:19.565Z,97603.88
2023-10-06T09:17:32.134Z,97598.03
2023-10-06T09:18:40.463Z,97593.84
2023-10-06T09:19:49.115Z,97595.03
2023-10-06T09:20:52.210Z,97600.44
2023-10-06T09:22:05.694Z,97593.72
2023-10-06T09:23:07.664Z,97590.88
2023-10-06T09:24:20.608Z,97594.81
2023-10-06T09:25:22.730Z,97598.72
2023-10-06T09:26:29.399Z,97591.56
2023-10-06T09:27:31.104Z,97598.38
2023-10-06T09:28:32.617Z,97597.50
2023-10-06T09:29:34.666Z,97596.72
2023-10-06T09:31:01.479Z,97589.22
2023-10-06T09:32:22.007Z,97583.06
2023-10-06T09:33:29.038Z,97584.69
2023-10-06T09:34:33.838Z,97582.34
2023-10-06T09:35:35.390Z,97580.13
2023-10-06T09:36:44.554Z,97583.75
2023-10-06T09:37:47.726Z,97584.84
2023-10-06T09:38:50.475Z,97578.97
2023-10-06T09:40:03.806Z,97589.81
2023-10-06T09:41:09.080Z,97579.41
2023-10-06T09:42:11.075Z,97578.22
2023-10-06T09:43:17.486Z,97584.91
2023-10-06T09:44:22.158Z,97583.75
2023-10-06T09:45:26.001Z,97579.44
2023-10-06T09:46:28.407Z,97579.13
2023-10-06T09:47:32.379Z,97579.88
2023-10-06T09:48:37.151Z,97581.00
2023-10-06T09:49:40.690Z,97571.31
2023-10-06T09:50:51.875Z,97578.63
2023-10-06T09:51:53.956Z,97572.94
2023-10-06T09:53:02.000Z,97572.06
2023-10-06T09:54:05.452Z,97573.47
2023-10-06T09:55:07.724Z,97564.72
2023-10-06T09:56:12.543Z,97561.34
2023-10-06T09:57:14.809Z,97565.47
2023-10-06T09:58:18.387Z,97574.59
2023-10-06T09:59:20.246Z,97570.53
2023-10-06T10:00:22.432Z,97568.88
2023-10-06T10:01:27.188Z,97570.94
2023-10-06T10:02:33.640Z,97560.94
2023-10-06T10:03:38.796Z,97568.25
2023-10-06T10:04:40.678Z,97560.03
2023-10-06T10:05:43.197Z,97570.50
2023-10-06T10:06:45.796Z,97563.56
2023-10-06T10:07:51.075Z,97568.19
2023-10-06T10:08:52.518Z,97558.31
2023-10-06T10:09:54.157Z,97561.06
2023-10-06T10:10:58.044Z,97568.22
2023-10-06T10:12:30.692Z,97565.81
2023-10-06T10:13:46.093Z,97558.00
2023-10-06T10:14:53.307Z,97557.88
2023-10-06T10:16:17.675Z,97559.59
2023-10-06T10:17:19.835Z,97566.94
2023-10-06T10:18:27.518Z,97573.75
2023-10-06T10:19:29.772Z,97563.63
2023-10-06T10:20:33.769Z,97566.19
2023-10-06T10:21:37.915Z,97558.94
2023-10-06T10:22:42.082Z,97562.66
2023-10-06T10:23:46.506Z,97559.25
2023-10-06T10:25:52.948Z,97559.03
2023-10-06T10:26:54.894Z,97560.22
2023-10-06T10:28:20.752Z,97550.63
2023-10-06T10:29:25.608Z,97558.31
2023-10-06T10:30:57.599Z,97547.59
2023-10-06T10:32:24.059Z,97546.03
2023-10-06T10:33:31.044Z,97552.47
2023-10-06T10:34:39.565Z,97541.34
2023-10-06T10:36:16.980Z,97543.44
2023-10-06T10:37:18.631Z,97542.84
2023-10-06T10:38:20.112Z,97548.72
2023-10-06T10:39:23.274Z,97545.25
2023-10-06T10:40:27.048Z,97546.31
2023-10-06T10:41:34.338Z,97544.84
2023-10-06T10:42:41.672Z,97542.59
2023-10-06T10:43:46.527Z,97540.31
2023-10-06T10:44:49.501Z,97541.88
2023-10-06T10:45:53.608Z,97535.88
2023-10-06T10:46:57.317Z,97535.56
2023-10-06T10:48:00.407Z,97529.44
2023-10-06T10:49:02.717Z,97522.75
2023-10-06T10:50:06.565Z,97531.28
2023-10-06T10:51:13.000Z,97529.41
2023-10-06T10:52:16.052Z,97522.97
2023-10-06T10:53:23.686Z,97522.53
2023-10-06T10:54:29.611Z,97519.88
2023-10-06T10:55:32.540Z,97519.34
2023-10-06T10:56:37.985Z,97517.34
2023-10-06T10:57:45.676Z,97519.03
2023-10-06T10:58:49.074Z,97523.13
2023-10-06T11:00:08.941Z,97519.44
2023-10-06T11:01:41.365Z,97513.38
2023-10-06T11:03:02.079Z,97509.78
2023-10-06T11:04:32.156Z,97511.50
2023-10-06T11:05:34.805Z,97503.91
2023-10-06T11:06:38.853Z,97499.28
2023-10-06T11:07:40.622Z,97497.06
2023-10-06T11:08:42.004Z,97499.00
2023-10-06T11:09:49.702Z,97493.72
2023-10-06T11:10:59.468Z,97497.28
2023-10-06T11:12:23.609Z,97501.50
2023-10-06T11:13:40.270Z,97499.00
2023-10-06T11:14:47.116Z,97501.09
2023-10-06T11:15:51.508Z,97495.75
2023-10-06T11:16:54.675Z,97496.06
2023-10-06T11:17:57.360Z,97496.41
2023-10-06T11:19:04.658Z,97497.16
2023-10-06T11:20:33.965Z,97489.66
2023-10-06T11:21:35.358Z,97492.09
2023-10-06T11:22:36.891Z,97489.59
2023-10-06T11:23:44.970Z,97491.34
2023-10-06T11:24:49.693Z,97494.56
2023-10-06T11:25:51.401Z,97498.66
2023-10-06T11:26:53.348Z,97493.28
2023-10-06T11:28:04.342Z,97486.53
2023-10-06T11:29:06.149Z,97490.03
2023-10-06T11:30:10.041Z,97486.69
2023-10-06T11:31:13.511Z,97489.03
2023-10-06T11:32:15.142Z,97484.25
2023-10-06T11:33:19.614Z,97487.34
2023-10-06T11:34:21.139Z,97497.13
2023-10-06T11:35:22.902Z,97483.00
2023-10-06T11:36:24.351Z,97482.69
2023-10-06T11:37:26.688Z,97487.28
2023-10-06T11:38:29.033Z,97478.91
2023-10-06T11:39:30.681Z,97485.69
2023-10-06T11:40:33.232Z,97491.13
2023-10-06T11:41:34.678Z,97483.94
2023-10-06T11:42:42.304Z,97487.88
2023-10-06T11:43:53.966Z,97484.66
2023-10-06T11:44:57.703Z,97482.28
2023-10-06T11:46:03.388Z,97479.81
2023-10-06T11:47:05.249Z,97477.03
2023-10-06T11:48:23.728Z,97471.38
2023-10-06T11:49:25.221Z,97473.50
2023-10-06T11:50:32.623Z,97480.56
2023-10-06T11:51:40.603Z,97477.53
2023-10-06T11:52:45.443Z,97470.19
2023-10-06T11:53:46.960Z,97476.41
2023-10-06T11:54:48.695Z,97475.81
2023-10-06T11:55:52.720Z,97483.03
2023-10-06T11:56:57.107Z,97470.34
2023-10-06T11:58:02.394Z,97469.28
2023-10-06T11:59:04.856Z,97474.53
2023-10-06T12:00:11.474Z,97476.31
2023-10-06T12:01:37.392Z,97472.28
2023-10-06T12:02:51.323Z,97471.03
2023-10-06T12:03:55.075Z,97478.38
2023-10-06T12:05:10.680Z,97458.19
2023-10-06T12:06:14.840Z,97475.44
2023-10-06T12:07:26.257Z,97475.28
2023-10-06T12:08:27.798Z,97467.47
2023-10-06T12:09:35.441Z,97459.75
2023-10-06T12:10:48.295Z,97471.00
2023-10-06T12:11:49.713Z,97472.00
2023-10-06T12:12:51.942Z,97466.63
2023-10-06T12:13:53.429Z,97461.91
2023-10-06T12:14:56.880Z,97467.97
2023-10-06T12:15:58.304Z,97460.63
2023-10-06T12:16:59.815Z,97464.72
2023-10-06T12:18:01.404Z,97459.09
2023-10-06T12:19:02.879Z,97458.78
2023-10-06T12:20:06.088Z,97457.53
2023-10-06T12:21:09.395Z,97457.41
2023-10-06T12:22:14.760Z,97452.81
2023-10-06T12:23:19.298Z,97440.63
2023-10-06T12:24:23.723Z,97449.34
2023-10-06T12:25:28.986Z,97439.78
2023-10-06T12:26:30.463Z,97438.25
2023-10-06T12:27:31.896Z,97452.13
2023-10-06T12:28:33.593Z,97442.09
2023-10-06T12:29:35.780Z,97440.06
2023-10-06T12:30:37.328Z,97440.25
2023-10-06T12:31:40.593Z,97443.50
2023-10-06T12:32:46.908Z,97437.09
2023-10-06T12:33:56.999Z,97436.00
2023-10-06T12:35:01.080Z,97437.59
2023-10-06T12:36:09.237Z,97432.75
2023-10-06T12:37:12.344Z,97432.63
2023-10-06T12:38:15.845Z,97433.47
2023-10-06T12:39:18.508Z,97436.25
2023-10-06T12:40:19.965Z,97449.22
2023-10-06T12:41:22.961Z,97438.72
2023-10-06T12:42:32.898Z,97439.53
2023-10-06T12:43:37.139Z,97439.66
2023-10-06T12:44:43.956Z,97435.13
2023-10-06T12:45:45.680Z,97441.16
2023-10-06T12:46:47.246Z,97443.88
2023-10-06T12:47:51.545Z,97433.47
2023-10-06T12:48:53.143Z,97435.97
2023-10-06T12:49:54.794Z,97441.72
2023-10-06T12:50:56.216Z,97426.84
2023-10-06T12:51:59.016Z,97435.59
2023-10-06T12:53:01.184Z,97429.06
2023-10-06T12:54:04.154Z,97430.78
2023-10-06T12:55:11.777Z,97433.69
2023-10-06T12:56:13.664Z,97433.69
2023-10-06T12:57:15.373Z,97441.06
2023-10-06T12:58:17.702Z,97441.03
2023-10-06T12:59:19.148Z,97436.44
2023-10-06T13:00:21.204Z,97439.56
2023-10-06T13:01:26.615Z,97441.19
2023-10-06T13:02:28.165Z,97431.81
2023-10-06T13:03:30.536Z,97434.09
2023-10-06T13:04:32.438Z,97434.41
2023-10-06T13:05:34.012Z,97443.34
2023-10-06T13:06:36.751Z,97441.72
2023-10-06T13:07:38.403Z,97437.16
2023-10-06T13:08:41.027Z,97444.19
2023-10-06T13:09:42.482Z,97440.19
2023-10-06T13:10:48.316Z,97435.53
2023-10-06T13:11:49.811Z,97443.34
2023-10-06T13:12:51.953Z,97436.53
2023-10-06T13:13:53.402Z,97442.03
2023-10-06T13:14:55.422Z,97435.97
2023-10-06T13:15:56.855Z,97428.22
2023-10-06T13:16:58.547Z,97432.88
2023-10-06T13:18:01.562Z,97431.78
2023-10-06T13:19:03.092Z,97429.13
2023-10-06T13:20:09.530Z,97435.31
2023-10-06T13:21:11.547Z,97433.19
2023-10-06T13:22:13.056Z,97435.00
2023-10-06T13:23:14.556Z,97429.84
2023-10-06T13:24:17.960Z,97431.00
2023-10-06T13:25:19.544Z,97431.66
2023-10-06T13:26:40.155Z,97426.81
2023-10-06T13:27:48.092Z,97418.00
2023-10-06T13:28:49.831Z,97425.25
2023-10-06T13:29:53.253Z,97419.84
2023-10-06T13:30:55.242Z,97413.22
2023-10-06T13:31:56.790Z,97418.63
2023-10-06T13:32:58.877Z,97422.63
2023-10-06T13:34:04.377Z,97423.44
2023-10-06T13:35:12.664Z,97420.28
2023-10-06T13:36:15.852Z,97413.97
2023-10-06T13:37:17.526Z,97418.72
2023-10-06T13:38:20.300Z,97416.44
2023-10-06T13:39:26.347Z,97421.63
2023-10-06T13:40:29.707Z,97414.03
2023-10-06T13:41:31.162Z,97411.06
2023-10-06T13:42:32.560Z,97413.41
2023-10-06T13:43:34.363Z,97413.97
2023-10-06T13:44:36.379Z,97405.84
2023-10-06T13:45:40.587Z,97406.69
2023-10-06T13:46:42.139Z,97409.50
2023-10-06T13:47:44.152Z,97408.59
2023-10-06T13:48:45.936Z,97407.72
2023-10-06T13:49:54.115Z,97407.28
2023-10-06T13:50:59.179Z,97398.75
2023-10-06T13:52:01.446Z,97402.50
2023-10-06T13:53:03.733Z,97405.94
2023-10-06T13:54:06.869Z,97413.44
2023-10-06T13:55:12.420Z,97403.66
2023-10-06T13:56:13.921Z,97400.94
2023-10-06T13:57:15.388Z,97402.84
2023-10-06T13:58:16.877Z,97395.06
2023-10-06T13:59:19.600Z,97407.94
2023-10-06T14:00:41.894Z,97405.25
2023-10-06T14:01:43.537Z,97405.78
2023-10-06T14:02:45.110Z,97406.50
2023-10-06T14:03:49.354Z,97405.53
2023-10-06T14:04:50.923Z,97398.50
2023-10-06T14:05:54.090Z,97404.25
2023-10-06T14:06:58.776Z,97403.97
2023-10-06T14:08:01.711Z,97406.00
2023-10-06T14:09:07.261Z,97404.25
2023-10-06T14:10:17.166Z,97396.78
2023-10-06T14:11:18.865Z,97399.47
2023-10-06T14:12:21.705Z,97392.91
2023-10-06T14:13:26.181Z,97393.16
2023-10-06T14:14:46.331Z,97397.16
2023-10-06T14:16:01.618Z,97392.69
2023-10-06T14:17:03.628Z,97398.91
2023-10-06T14:18:08.430Z,97386.41
2023-10-06T14:19:10.336Z,97388.44
2023-10-06T14:20:24.722Z,97386.94
2023-10-06T14:21:26.231Z,97387.78
2023-10-06T14:22:31.748Z,97383.41
2023-10-06T14:23:35.530Z,97386.69
2023-10-06T14:24:40.352Z,97389.69
2023-10-06T14:25:43.909Z,97393.03
2023-10-06T14:26:45.692Z,97383.16
2023-10-06T14:27:47.194Z,97380.94
2023-10-06T14:28:49.822Z,97382.59
2023-10-06T14:29:52.254Z,97393.94
2023-10-06T14:30:54.375Z,97380.09
2023-10-06T14:32:19.651Z,97381.72
2023-10-06T14:33:25.102Z,97382.03
2023-10-06T14:34:47.787Z,97390.47
2023-10-06T14:35:54.169Z,97385.94
2023-10-06T14:36:58.684Z,97371.81
2023-10-06T14:38:25.808Z,97382.50
2023-10-06T14:39:45.595Z,97384.56
2023-10-06T14:41:14.651Z,97381.81
2023-10-06T14:42:34.596Z,97380.06
2023-10-06T14:43:54.741Z,97384.44
2023-10-06T14:45:14.577Z,97384.59
2023-10-06T14:46:16.019Z,97373.63
2023-10-06T14:47:19.408Z,97380.22
2023-10-06T14:48:20.994Z,97366.59
2023-10-06T14:49:27.709Z,97377.16
2023-10-06T14:50:29.392Z,97380.47
2023-10-06T14:51:31.434Z,97372.34
2023-10-06T14:52:33.827Z,97383.25
2023-10-06T14:53:36.163Z,97382.25
2023-10-06T14:54:39.705Z,97381.28
2023-10-06T14:55:41.316Z,97383.84
2023-10-06T14:56:42.871Z,97374.78
2023-10-06T14:57:44.343Z,97381.88
2023-10-06T14:58:46.220Z,97383.22
2023-10-06T14:59:47.672Z,97379.34
2023-10-06T15:00:49.897Z,97371.59
2023-10-06T15:01:54.836Z,97378.44
2023-10-06T15:02:58.130Z,97376.91
2023-10-06T15:04:05.564Z,97371.22
2023-10-06T15:05:07.613Z,97374.47
2023-10-06T15:06:12.226Z,97377.91
2023-10-06T15:07:15.745Z,97379.09
2023-10-06T15:08:17.646Z,97383.34
2023-10-06T15:09:20.500Z,97376.94
2023-10-06T15:10:21.888Z,97375.50
2023-10-06T15:11:24.107Z,97372.84
2023-10-06T15:12:26.810Z,97374.66
2023-10-06T15:13:28.442Z,97376.66
2023-10-06T15:14:30.068Z,97382.94
2023-10-06T15:15:31.525Z,97384.66
2023-10-06T15:16:33.265Z,97386.88
2023-10-06T15:17:36.604Z,97375.28
2023-10-06T15:18:38.700Z,97379.13
2023-10-06T15:19:40.188Z,97379.00
2023-10-06T15:20:43.466Z,97374.66
2023-10-06T15:21:45.949Z,97375.72
2023-10-06T15:22:47.537Z,97372.63
2023-10-06T15:23:51.274Z,97368.31
2023-10-06T15:24:55.405Z,97370.13
2023-10-06T15:26:03.218Z,97374.44
2023-10-06T15:27:07.913Z,97367.75
2023-10-06T15:28:23.371Z,97365.41
2023-10-06T15:29:35.279Z,97362.50
2023-10-06T15:30:37.163Z,97366.03
2023-10-06T15:31:38.926Z,97367.69
2023-10-06T15:32:40.698Z,97369.59
2023-10-06T15:33:45.143Z,97369.06
2023-10-06T15:34:46.620Z,97370.22
2023-10-06T15:35:48.316Z,97358.34
2023-10-06T15:36:49.752Z,97373.81
2023-10-06T15:37:51.214Z,97363.53
2023-10-06T15:38:52.671Z,97364.50
2023-10-06T15:39:55.588Z,97367.44
2023-10-06T15:41:03.995Z,97367.72
2023-10-06T15:42:05.870Z,97362.63
2023-10-06T15:43:19.973Z,97364.03
2023-10-06T15:44:22.719Z,97364.13
2023-10-06T15:45:24.201Z,97360.66
2023-10-06T15:46:26.380Z,97371.38
2023-10-06T15:47:28.956Z,97372.97
2023-10-06T15:48:34.708Z,97372.56
2023-10-06T15:49:38.399Z,97372.34
2023-10-06T15:50:39.884Z,97371.69
2023-10-06T15:51:43.434Z,97366.94
2023-10-06T15:52:44.930Z,97365.88
2023-10-06T15:53:46.305Z,97370.84
2023-10-06T15:54:48.253Z,97356.44
2023-10-06T15:55:49.689Z,97363.84
2023-10-06T15:56:52.010Z,97365.38
2023-10-06T15:57:54.907Z,97362.72
2023-10-06T15:58:56.889Z,97375.72
2023-10-06T16:00:02.901Z,97364.38
2023-10-06T16:01:10.614Z,97371.78
2023-10-06T16:02:14.544Z,97373.00
2023-10-06T16:03:21.230Z,97371.25
2023-10-06T16:04:26.113Z,97366.16
2023-10-06T16:05:27.568Z,97365.31
2023-10-06T16:06:33.135Z,97371.22
2023-10-06T16:07:40.418Z,97377.88
2023-10-06T16:08:47.934Z,97367.59
2023-10-06T16:09:51.214Z,97378.72
2023-10-06T16:10:52.616Z,97382.41
2023-10-06T16:11:54.405Z,97375.03
2023-10-06T16:12:55.890Z,97376.41
2023-10-06T16:13:57.317Z,97380.50
2023-10-06T16:21:56.523Z,97372.44
